sensor_id;sensor_type;location;lat;lon;timestamp;P1;durP1;ratioP1;P2;durP2;ratioP2
63534;SDS011;55128;50.230;18.944;2022-10-16T00:00:42;23.55;;;15.65;;
63534;SDS011;55128;50.230;18.944;2022-10-16T00:05:43;21.25;;;15.00;;
63534;SDS011;55128;50.230;18.944;2022-10-16T00:10:44;23.10;;;15.07;;
63534;SDS011;55128;50.230;18.944;2022-10-16T00:15:44;17.52;;;14.57;;
63534;SDS011;55128;50.230;18.944;2022-10-16T00:20:46;21.33;;;15.10;;
63534;SDS011;55128;50.230;18.944;2022-10-16T00:26:00;20.63;;;14.55;;
63534;SDS011;55128;50.230;18.944;2022-10-16T00:31:07;19.90;;;14.60;;
63534;SDS011;55128;50.230;18.944;2022-10-16T00:36:10;23.70;;;15.95;;
63534;SDS011;55128;50.230;18.944;2022-10-16T00:41:15;25.55;;;18.77;;
63534;SDS011;55128;50.230;18.944;2022-10-16T00:46:19;24.13;;;18.83;;
63534;SDS011;55128;50.230;18.944;2022-10-16T00:51:28;23.73;;;17.73;;
63534;SDS011;55128;50.230;18.944;2022-10-16T00:56:32;24.00;;;17.10;;
63534;SDS011;55128;50.230;18.944;2022-10-16T01:01:33;25.75;;;17.55;;
63534;SDS011;55128;50.230;18.944;2022-10-16T01:17:41;23.90;;;17.88;;
63534;SDS011;55128;50.230;18.944;2022-10-16T01:28:07;31.85;;;23.38;;
63534;SDS011;55128;50.230;18.944;2022-10-16T01:33:20;33.35;;;23.10;;
63534;SDS011;55128;50.230;18.944;2022-10-16T01:38:29;23.30;;;16.83;;
63534;SDS011;55128;50.230;18.944;2022-10-16T01:43:40;20.10;;;15.80;;
63534;SDS011;55128;50.230;18.944;2022-10-16T01:49:02;18.67;;;15.00;;
63534;SDS011;55128;50.230;18.944;2022-10-16T01:54:04;18.95;;;15.43;;
63534;SDS011;55128;50.230;18.944;2022-10-16T02:04:21;29.27;;;20.77;;
63534;SDS011;55128;50.230;18.944;2022-10-16T02:09:27;28.15;;;19.83;;
63534;SDS011;55128;50.230;18.944;2022-10-16T02:14:30;30.48;;;22.20;;
63534;SDS011;55128;50.230;18.944;2022-10-16T02:19:31;24.75;;;19.23;;
63534;SDS011;55128;50.230;18.944;2022-10-16T02:29:44;23.75;;;19.05;;
63534;SDS011;55128;50.230;18.944;2022-10-16T02:34:50;22.90;;;18.20;;
63534;SDS011;55128;50.230;18.944;2022-10-16T02:39:51;21.30;;;16.05;;
63534;SDS011;55128;50.230;18.944;2022-10-16T02:44:53;22.13;;;16.98;;
63534;SDS011;55128;50.230;18.944;2022-10-16T02:49:54;23.88;;;20.50;;
63534;SDS011;55128;50.230;18.944;2022-10-16T02:54:55;23.88;;;17.35;;
63534;SDS011;55128;50.230;18.944;2022-10-16T02:59:55;20.77;;;15.43;;
63534;SDS011;55128;50.230;18.944;2022-10-16T03:04:56;21.50;;;17.30;;
63534;SDS011;55128;50.230;18.944;2022-10-16T03:09:56;24.02;;;18.20;;
63534;SDS011;55128;50.230;18.944;2022-10-16T03:15:00;23.27;;;19.05;;
63534;SDS011;55128;50.230;18.944;2022-10-16T03:20:00;43.10;;;32.38;;
63534;SDS011;55128;50.230;18.944;2022-10-16T03:25:01;30.48;;;23.15;;
63534;SDS011;55128;50.230;18.944;2022-10-16T03:30:02;38.15;;;33.92;;
63534;SDS011;55128;50.230;18.944;2022-10-16T03:35:03;30.77;;;22.77;;
63534;SDS011;55128;50.230;18.944;2022-10-16T03:40:04;27.73;;;22.55;;
63534;SDS011;55128;50.230;18.944;2022-10-16T03:45:05;27.23;;;21.27;;
63534;SDS011;55128;50.230;18.944;2022-10-16T03:50:06;26.08;;;19.83;;
63534;SDS011;55128;50.230;18.944;2022-10-16T03:55:07;25.58;;;20.55;;
63534;SDS011;55128;50.230;18.944;2022-10-16T04:00:08;25.35;;;19.95;;
63534;SDS011;55128;50.230;18.944;2022-10-16T04:05:09;25.58;;;20.92;;
63534;SDS011;55128;50.230;18.944;2022-10-16T04:10:10;26.55;;;21.17;;
63534;SDS011;55128;50.230;18.944;2022-10-16T04:15:11;34.70;;;29.02;;
63534;SDS011;55128;50.230;18.944;2022-10-16T04:20:11;27.45;;;22.45;;
63534;SDS011;55128;50.230;18.944;2022-10-16T04:25:12;42.13;;;37.53;;
63534;SDS011;55128;50.230;18.944;2022-10-16T04:30:13;25.35;;;22.05;;
63534;SDS011;55128;50.230;18.944;2022-10-16T04:35:13;30.80;;;23.33;;
63534;SDS011;55128;50.230;18.944;2022-10-16T04:40:14;27.98;;;22.77;;
63534;SDS011;55128;50.230;18.944;2022-10-16T04:45:15;27.52;;;22.92;;
63534;SDS011;55128;50.230;18.944;2022-10-16T04:50:15;27.70;;;22.20;;
63534;SDS011;55128;50.230;18.944;2022-10-16T04:55:16;25.75;;;21.42;;
63534;SDS011;55128;50.230;18.944;2022-10-16T05:00:17;27.35;;;22.08;;
63534;SDS011;55128;50.230;18.944;2022-10-16T05:05:17;28.30;;;23.90;;
63534;SDS011;55128;50.230;18.944;2022-10-16T05:10:21;29.92;;;26.48;;
63534;SDS011;55128;50.230;18.944;2022-10-16T05:15:21;24.55;;;20.17;;
63534;SDS011;55128;50.230;18.944;2022-10-16T05:20:25;30.13;;;24.33;;
63534;SDS011;55128;50.230;18.944;2022-10-16T05:25:25;28.42;;;23.02;;
63534;SDS011;55128;50.230;18.944;2022-10-16T05:30:26;27.73;;;23.05;;
63534;SDS011;55128;50.230;18.944;2022-10-16T05:35:26;37.08;;;26.83;;
63534;SDS011;55128;50.230;18.944;2022-10-16T05:40:27;27.50;;;22.70;;
63534;SDS011;55128;50.230;18.944;2022-10-16T05:45:28;25.88;;;21.17;;
63534;SDS011;55128;50.230;18.944;2022-10-16T05:50:28;26.38;;;21.35;;
63534;SDS011;55128;50.230;18.944;2022-10-16T05:55:29;29.90;;;24.52;;
63534;SDS011;55128;50.230;18.944;2022-10-16T06:00:29;28.55;;;25.50;;
63534;SDS011;55128;50.230;18.944;2022-10-16T06:05:30;33.17;;;26.95;;
63534;SDS011;55128;50.230;18.944;2022-10-16T06:10:31;26.13;;;22.08;;
63534;SDS011;55128;50.230;18.944;2022-10-16T06:15:31;29.05;;;24.65;;
63534;SDS011;55128;50.230;18.944;2022-10-16T06:20:32;27.13;;;22.77;;
63534;SDS011;55128;50.230;18.944;2022-10-16T06:25:32;35.13;;;31.35;;
63534;SDS011;55128;50.230;18.944;2022-10-16T06:30:33;37.13;;;31.52;;
63534;SDS011;55128;50.230;18.944;2022-10-16T06:35:33;32.38;;;26.23;;
63534;SDS011;55128;50.230;18.944;2022-10-16T06:40:34;50.00;;;44.90;;
63534;SDS011;55128;50.230;18.944;2022-10-16T06:45:35;34.92;;;31.15;;
63534;SDS011;55128;50.230;18.944;2022-10-16T06:50:35;31.27;;;28.17;;
63534;SDS011;55128;50.230;18.944;2022-10-16T06:55:36;23.23;;;20.83;;
63534;SDS011;55128;50.230;18.944;2022-10-16T07:00:36;21.30;;;17.65;;
63534;SDS011;55128;50.230;18.944;2022-10-16T07:05:40;15.30;;;13.80;;
63534;SDS011;55128;50.230;18.944;2022-10-16T07:10:42;12.48;;;11.35;;
63534;SDS011;55128;50.230;18.944;2022-10-16T07:15:42;15.18;;;13.57;;
63534;SDS011;55128;50.230;18.944;2022-10-16T07:20:43;12.50;;;10.40;;
63534;SDS011;55128;50.230;18.944;2022-10-16T07:25:44;10.30;;;9.35;;
63534;SDS011;55128;50.230;18.944;2022-10-16T07:30:44;11.23;;;8.30;;
63534;SDS011;55128;50.230;18.944;2022-10-16T07:35:49;8.35;;;7.55;;
63534;SDS011;55128;50.230;18.944;2022-10-16T07:41:03;7.88;;;7.13;;
63534;SDS011;55128;50.230;18.944;2022-10-16T07:46:08;9.00;;;7.20;;
63534;SDS011;55128;50.230;18.944;2022-10-16T07:51:12;8.27;;;7.40;;
63534;SDS011;55128;50.230;18.944;2022-10-16T07:56:14;10.98;;;7.25;;
63534;SDS011;55128;50.230;18.944;2022-10-16T08:01:16;7.53;;;6.72;;
63534;SDS011;55128;50.230;18.944;2022-10-16T08:06:18;11.07;;;9.00;;
63534;SDS011;55128;50.230;18.944;2022-10-16T08:11:20;10.83;;;8.07;;
63534;SDS011;55128;50.230;18.944;2022-10-16T08:16:20;10.38;;;7.75;;
63534;SDS011;55128;50.230;18.944;2022-10-16T08:21:22;9.15;;;7.45;;
63534;SDS011;55128;50.230;18.944;2022-10-16T08:26:23;8.93;;;7.28;;
63534;SDS011;55128;50.230;18.944;2022-10-16T08:31:24;9.63;;;7.53;;
63534;SDS011;55128;50.230;18.944;2022-10-16T08:36:26;8.77;;;7.28;;
63534;SDS011;55128;50.230;18.944;2022-10-16T08:41:30;7.50;;;6.72;;
63534;SDS011;55128;50.230;18.944;2022-10-16T08:51:58;8.15;;;7.13;;
63534;SDS011;55128;50.230;18.944;2022-10-16T08:57:11;11.45;;;8.13;;
63534;SDS011;55128;50.230;18.944;2022-10-16T09:02:24;9.27;;;8.27;;
63534;SDS011;55128;50.230;18.944;2022-10-16T09:07:36;9.90;;;7.88;;
63534;SDS011;55128;50.230;18.944;2022-10-16T09:13:01;9.75;;;7.25;;
63534;SDS011;55128;50.230;18.944;2022-10-16T09:23:21;7.80;;;7.00;;
63534;SDS011;55128;50.230;18.944;2022-10-16T09:28:25;7.53;;;6.80;;
63534;SDS011;55128;50.230;18.944;2022-10-16T09:33:30;7.72;;;6.40;;
63534;SDS011;55128;50.230;18.944;2022-10-16T09:38:36;8.30;;;7.10;;
63534;SDS011;55128;50.230;18.944;2022-10-16T09:48:47;8.73;;;7.38;;
63534;SDS011;55128;50.230;18.944;2022-10-16T09:53:53;8.02;;;7.30;;
63534;SDS011;55128;50.230;18.944;2022-10-16T09:59:00;9.23;;;6.78;;
63534;SDS011;55128;50.230;18.944;2022-10-16T10:04:03;7.75;;;7.05;;
63534;SDS011;55128;50.230;18.944;2022-10-16T10:09:17;8.20;;;6.97;;
63534;SDS011;55128;50.230;18.944;2022-10-16T10:14:23;7.95;;;6.63;;
63534;SDS011;55128;50.230;18.944;2022-10-16T10:19:24;8.98;;;7.30;;
63534;SDS011;55128;50.230;18.944;2022-10-16T10:24:27;8.85;;;6.80;;
63534;SDS011;55128;50.230;18.944;2022-10-16T10:30:15;9.07;;;7.07;;
63534;SDS011;55128;50.230;18.944;2022-10-16T10:35:19;10.33;;;7.20;;
63534;SDS011;55128;50.230;18.944;2022-10-16T10:40:39;7.50;;;6.50;;
63534;SDS011;55128;50.230;18.944;2022-10-16T10:45:48;7.70;;;6.95;;
63534;SDS011;55128;50.230;18.944;2022-10-16T10:51:04;9.50;;;6.95;;
63534;SDS011;55128;50.230;18.944;2022-10-16T10:56:20;8.35;;;7.35;;
63534;SDS011;55128;50.230;18.944;2022-10-16T11:06:59;12.43;;;7.55;;
63534;SDS011;55128;50.230;18.944;2022-10-16T11:12:23;10.65;;;8.20;;
63534;SDS011;55128;50.230;18.944;2022-10-16T11:17:35;14.57;;;7.80;;
63534;SDS011;55128;50.230;18.944;2022-10-16T11:22:45;9.75;;;7.45;;
63534;SDS011;55128;50.230;18.944;2022-10-16T11:27:59;14.55;;;7.88;;
63534;SDS011;55128;50.230;18.944;2022-10-16T11:33:23;8.95;;;6.80;;
63534;SDS011;55128;50.230;18.944;2022-10-16T11:38:29;15.32;;;13.52;;
63534;SDS011;55128;50.230;18.944;2022-10-16T11:43:38;10.15;;;7.20;;
63534;SDS011;55128;50.230;18.944;2022-10-16T11:48:46;7.82;;;6.82;;
63534;SDS011;55128;50.230;18.944;2022-10-16T11:59:00;8.00;;;7.20;;
63534;SDS011;55128;50.230;18.944;2022-10-16T12:04:17;8.98;;;7.70;;
63534;SDS011;55128;50.230;18.944;2022-10-16T12:09:28;8.13;;;7.33;;
63534;SDS011;55128;50.230;18.944;2022-10-16T12:19:39;9.90;;;7.50;;
63534;SDS011;55128;50.230;18.944;2022-10-16T12:24:42;12.40;;;7.70;;
63534;SDS011;55128;50.230;18.944;2022-10-16T12:29:43;8.52;;;7.57;;
63534;SDS011;55128;50.230;18.944;2022-10-16T12:34:44;9.90;;;8.38;;
63534;SDS011;55128;50.230;18.944;2022-10-16T12:39:47;10.98;;;8.18;;
63534;SDS011;55128;50.230;18.944;2022-10-16T12:44:49;9.13;;;8.23;;
63534;SDS011;55128;50.230;18.944;2022-10-16T12:49:51;9.93;;;8.75;;
63534;SDS011;55128;50.230;18.944;2022-10-16T12:54:55;11.07;;;9.48;;
63534;SDS011;55128;50.230;18.944;2022-10-16T13:11:17;11.05;;;9.45;;
63534;SDS011;55128;50.230;18.944;2022-10-16T13:16:38;12.13;;;9.15;;
63534;SDS011;55128;50.230;18.944;2022-10-16T13:21:50;14.65;;;9.13;;
63534;SDS011;55128;50.230;18.944;2022-10-16T13:32:40;11.18;;;8.82;;
63534;SDS011;55128;50.230;18.944;2022-10-16T13:37:46;10.77;;;8.95;;
63534;SDS011;55128;50.230;18.944;2022-10-16T13:42:46;9.65;;;8.35;;
63534;SDS011;55128;50.230;18.944;2022-10-16T13:47:47;9.35;;;8.10;;
63534;SDS011;55128;50.230;18.944;2022-10-16T13:52:48;10.13;;;8.93;;
63534;SDS011;55128;50.230;18.944;2022-10-16T13:57:49;9.75;;;8.32;;
63534;SDS011;55128;50.230;18.944;2022-10-16T14:02:55;10.32;;;8.65;;
63534;SDS011;55128;50.230;18.944;2022-10-16T14:08:01;9.82;;;8.48;;
63534;SDS011;55128;50.230;18.944;2022-10-16T14:13:03;11.02;;;9.23;;
63534;SDS011;55128;50.230;18.944;2022-10-16T14:18:06;10.55;;;9.48;;
63534;SDS011;55128;50.230;18.944;2022-10-16T14:28:30;10.90;;;9.02;;
63534;SDS011;55128;50.230;18.944;2022-10-16T14:33:32;9.63;;;8.63;;
63534;SDS011;55128;50.230;18.944;2022-10-16T14:38:34;13.03;;;9.43;;
63534;SDS011;55128;50.230;18.944;2022-10-16T14:43:39;12.52;;;8.75;;
63534;SDS011;55128;50.230;18.944;2022-10-16T14:48:42;13.63;;;10.13;;
63534;SDS011;55128;50.230;18.944;2022-10-16T14:53:50;12.48;;;10.52;;
63534;SDS011;55128;50.230;18.944;2022-10-16T14:58:51;12.90;;;9.70;;
63534;SDS011;55128;50.230;18.944;2022-10-16T15:03:53;14.13;;;10.85;;
63534;SDS011;55128;50.230;18.944;2022-10-16T15:08:55;14.70;;;10.30;;
63534;SDS011;55128;50.230;18.944;2022-10-16T15:13:55;12.38;;;10.00;;
63534;SDS011;55128;50.230;18.944;2022-10-16T15:18:56;13.82;;;9.90;;
63534;SDS011;55128;50.230;18.944;2022-10-16T15:23:57;11.80;;;10.07;;
63534;SDS011;55128;50.230;18.944;2022-10-16T15:28:59;11.68;;;10.07;;
63534;SDS011;55128;50.230;18.944;2022-10-16T15:33:59;16.00;;;12.13;;
63534;SDS011;55128;50.230;18.944;2022-10-16T15:39:15;11.23;;;9.82;;
63534;SDS011;55128;50.230;18.944;2022-10-16T15:44:17;13.18;;;10.57;;
63534;SDS011;55128;50.230;18.944;2022-10-16T15:49:18;12.43;;;9.90;;
63534;SDS011;55128;50.230;18.944;2022-10-16T15:54:19;11.02;;;9.90;;
63534;SDS011;55128;50.230;18.944;2022-10-16T15:59:22;12.05;;;9.85;;
63534;SDS011;55128;50.230;18.944;2022-10-16T16:04:23;12.25;;;9.82;;
63534;SDS011;55128;50.230;18.944;2022-10-16T16:09:23;15.05;;;13.00;;
63534;SDS011;55128;50.230;18.944;2022-10-16T16:14:24;26.67;;;22.23;;
63534;SDS011;55128;50.230;18.944;2022-10-16T16:19:26;17.67;;;14.27;;
63534;SDS011;55128;50.230;18.944;2022-10-16T16:24:26;16.38;;;14.57;;
63534;SDS011;55128;50.230;18.944;2022-10-16T16:29:27;14.05;;;12.35;;
63534;SDS011;55128;50.230;18.944;2022-10-16T16:34:28;16.90;;;11.18;;
63534;SDS011;55128;50.230;18.944;2022-10-16T16:39:28;15.38;;;11.60;;
63534;SDS011;55128;50.230;18.944;2022-10-16T16:44:29;16.35;;;12.07;;
63534;SDS011;55128;50.230;18.944;2022-10-16T16:49:30;15.27;;;12.30;;
63534;SDS011;55128;50.230;18.944;2022-10-16T16:54:31;29.92;;;23.02;;
63534;SDS011;55128;50.230;18.944;2022-10-16T16:59:31;52.80;;;40.47;;
63534;SDS011;55128;50.230;18.944;2022-10-16T17:04:34;29.70;;;21.77;;
63534;SDS011;55128;50.230;18.944;2022-10-16T17:09:35;23.67;;;20.17;;
63534;SDS011;55128;50.230;18.944;2022-10-16T17:14:36;31.08;;;22.85;;
63534;SDS011;55128;50.230;18.944;2022-10-16T17:19:37;23.60;;;17.40;;
63534;SDS011;55128;50.230;18.944;2022-10-16T17:24:37;20.55;;;16.77;;
63534;SDS011;55128;50.230;18.944;2022-10-16T17:29:38;18.15;;;16.00;;
63534;SDS011;55128;50.230;18.944;2022-10-16T17:34:39;19.30;;;15.02;;
63534;SDS011;55128;50.230;18.944;2022-10-16T17:39:39;20.70;;;16.75;;
63534;SDS011;55128;50.230;18.944;2022-10-16T17:44:40;20.45;;;17.85;;
63534;SDS011;55128;50.230;18.944;2022-10-16T17:49:40;27.83;;;23.98;;
63534;SDS011;55128;50.230;18.944;2022-10-16T17:54:41;25.30;;;20.35;;
63534;SDS011;55128;50.230;18.944;2022-10-16T17:59:43;22.83;;;19.17;;
63534;SDS011;55128;50.230;18.944;2022-10-16T18:04:43;25.55;;;21.60;;
63534;SDS011;55128;50.230;18.944;2022-10-16T18:09:44;21.48;;;19.25;;
63534;SDS011;55128;50.230;18.944;2022-10-16T18:14:45;20.73;;;17.80;;
63534;SDS011;55128;50.230;18.944;2022-10-16T18:19:45;56.28;;;37.63;;
63534;SDS011;55128;50.230;18.944;2022-10-16T18:24:46;37.22;;;29.92;;
63534;SDS011;55128;50.230;18.944;2022-10-16T18:29:46;29.88;;;23.30;;
63534;SDS011;55128;50.230;18.944;2022-10-16T18:34:47;39.00;;;28.67;;
63534;SDS011;55128;50.230;18.944;2022-10-16T18:39:48;31.75;;;25.95;;
63534;SDS011;55128;50.230;18.944;2022-10-16T18:44:48;30.98;;;25.20;;
63534;SDS011;55128;50.230;18.944;2022-10-16T18:49:49;42.58;;;30.33;;
63534;SDS011;55128;50.230;18.944;2022-10-16T18:54:54;27.05;;;21.85;;
63534;SDS011;55128;50.230;18.944;2022-10-16T18:59:55;39.13;;;30.27;;
63534;SDS011;55128;50.230;18.944;2022-10-16T19:04:56;37.85;;;29.73;;
63534;SDS011;55128;50.230;18.944;2022-10-16T19:09:57;35.05;;;25.98;;
63534;SDS011;55128;50.230;18.944;2022-10-16T19:14:58;46.58;;;33.78;;
63534;SDS011;55128;50.230;18.944;2022-10-16T19:19:59;41.00;;;31.00;;
63534;SDS011;55128;50.230;18.944;2022-10-16T19:24:59;32.67;;;25.58;;
63534;SDS011;55128;50.230;18.944;2022-10-16T19:30:00;37.53;;;29.95;;
63534;SDS011;55128;50.230;18.944;2022-10-16T19:35:00;39.00;;;30.60;;
63534;SDS011;55128;50.230;18.944;2022-10-16T19:40:02;49.65;;;36.78;;
63534;SDS011;55128;50.230;18.944;2022-10-16T19:45:03;41.97;;;31.85;;
63534;SDS011;55128;50.230;18.944;2022-10-16T19:50:04;47.20;;;36.80;;
63534;SDS011;55128;50.230;18.944;2022-10-16T19:55:05;60.50;;;41.35;;
63534;SDS011;55128;50.230;18.944;2022-10-16T20:00:07;56.05;;;39.55;;
63534;SDS011;55128;50.230;18.944;2022-10-16T20:05:08;90.63;;;44.10;;
63534;SDS011;55128;50.230;18.944;2022-10-16T20:10:08;222.10;;;80.07;;
63534;SDS011;55128;50.230;18.944;2022-10-16T20:15:09;245.75;;;82.68;;
63534;SDS011;55128;50.230;18.944;2022-10-16T20:20:10;163.30;;;66.93;;
63534;SDS011;55128;50.230;18.944;2022-10-16T20:25:11;145.63;;;64.35;;
63534;SDS011;55128;50.230;18.944;2022-10-16T20:30:11;148.55;;;67.32;;
63534;SDS011;55128;50.230;18.944;2022-10-16T20:35:12;54.03;;;33.78;;
63534;SDS011;55128;50.230;18.944;2022-10-16T20:40:12;49.40;;;36.13;;
63534;SDS011;55128;50.230;18.944;2022-10-16T20:45:14;66.32;;;40.42;;
63534;SDS011;55128;50.230;18.944;2022-10-16T20:50:14;55.70;;;35.72;;
63534;SDS011;55128;50.230;18.944;2022-10-16T20:55:15;53.13;;;40.42;;
63534;SDS011;55128;50.230;18.944;2022-10-16T21:00:17;44.17;;;32.53;;
63534;SDS011;55128;50.230;18.944;2022-10-16T21:05:18;51.55;;;36.92;;
63534;SDS011;55128;50.230;18.944;2022-10-16T21:10:19;46.03;;;31.95;;
63534;SDS011;55128;50.230;18.944;2022-10-16T21:15:21;42.60;;;32.17;;
63534;SDS011;55128;50.230;18.944;2022-10-16T21:20:21;44.97;;;33.28;;
63534;SDS011;55128;50.230;18.944;2022-10-16T21:25:22;45.10;;;33.33;;
63534;SDS011;55128;50.230;18.944;2022-10-16T21:30:22;40.78;;;30.60;;
63534;SDS011;55128;50.230;18.944;2022-10-16T21:35:23;44.58;;;33.97;;
63534;SDS011;55128;50.230;18.944;2022-10-16T21:40:24;40.55;;;29.83;;
63534;SDS011;55128;50.230;18.944;2022-10-16T21:45:25;39.47;;;30.20;;
63534;SDS011;55128;50.230;18.944;2022-10-16T21:50:26;49.78;;;37.38;;
63534;SDS011;55128;50.230;18.944;2022-10-16T21:55:26;40.97;;;29.50;;
63534;SDS011;55128;50.230;18.944;2022-10-16T22:00:27;51.28;;;39.30;;
63534;SDS011;55128;50.230;18.944;2022-10-16T22:05:27;48.88;;;36.10;;
63534;SDS011;55128;50.230;18.944;2022-10-16T22:10:28;47.97;;;35.17;;
63534;SDS011;55128;50.230;18.944;2022-10-16T22:15:29;46.17;;;34.00;;
63534;SDS011;55128;50.230;18.944;2022-10-16T22:20:29;54.15;;;36.85;;
63534;SDS011;55128;50.230;18.944;2022-10-16T22:25:30;53.40;;;36.92;;
63534;SDS011;55128;50.230;18.944;2022-10-16T22:30:36;57.63;;;40.05;;
63534;SDS011;55128;50.230;18.944;2022-10-16T22:35:39;44.92;;;33.33;;
63534;SDS011;55128;50.230;18.944;2022-10-16T22:40:40;34.58;;;26.67;;
63534;SDS011;55128;50.230;18.944;2022-10-16T22:45:41;42.05;;;29.58;;
63534;SDS011;55128;50.230;18.944;2022-10-16T22:50:42;45.42;;;33.30;;
63534;SDS011;55128;50.230;18.944;2022-10-16T22:55:43;52.10;;;33.13;;
63534;SDS011;55128;50.230;18.944;2022-10-16T23:00:43;48.05;;;34.53;;
63534;SDS011;55128;50.230;18.944;2022-10-16T23:05:44;51.58;;;37.15;;
63534;SDS011;55128;50.230;18.944;2022-10-16T23:10:45;48.85;;;32.83;;
63534;SDS011;55128;50.230;18.944;2022-10-16T23:15:46;45.20;;;31.67;;
63534;SDS011;55128;50.230;18.944;2022-10-16T23:20:47;46.92;;;34.30;;
63534;SDS011;55128;50.230;18.944;2022-10-16T23:25:48;54.25;;;36.90;;
63534;SDS011;55128;50.230;18.944;2022-10-16T23:30:48;54.38;;;37.90;;
63534;SDS011;55128;50.230;18.944;2022-10-16T23:35:49;49.95;;;34.10;;
63534;SDS011;55128;50.230;18.944;2022-10-16T23:40:49;56.10;;;42.47;;
63534;SDS011;55128;50.230;18.944;2022-10-16T23:45:50;52.58;;;37.28;;
63534;SDS011;55128;50.230;18.944;2022-10-16T23:50:51;48.47;;;35.75;;
63534;SDS011;55128;50.230;18.944;2022-10-16T23:55:51;47.58;;;35.50;;
